sensor_id;sensor_type;location;lat;lon;timestamp;P1;durP1;ratioP1;P2;durP2;ratioP2
25359;SDS011;13311;51.386;0.016;2023-03-13T00:04:47;13.68;;;4.32;;
25359;SDS011;13311;51.386;0.016;2023-03-13T00:09:48;18.52;;;5.03;;
25359;SDS011;13311;51.386;0.016;2023-03-13T00:14:49;17.38;;;4.50;;
25359;SDS011;13311;51.386;0.016;2023-03-13T00:19:49;18.17;;;4.88;;
25359;SDS011;13311;51.386;0.016;2023-03-13T00:24:50;22.08;;;5.10;;
25359;SDS011;13311;51.386;0.016;2023-03-13T00:29:51;25.88;;;6.32;;
25359;SDS011;13311;51.386;0.016;2023-03-13T00:34:51;34.33;;;7.10;;
25359;SDS011;13311;51.386;0.016;2023-03-13T00:39:52;31.45;;;7.60;;
25359;SDS011;13311;51.386;0.016;2023-03-13T00:44:53;31.15;;;7.63;;
25359;SDS011;13311;51.386;0.016;2023-03-13T00:49:53;28.95;;;6.35;;
25359;SDS011;13311;51.386;0.016;2023-03-13T00:54:54;23.60;;;5.82;;
25359;SDS011;13311;51.386;0.016;2023-03-13T00:59:55;25.60;;;6.68;;
25359;SDS011;13311;51.386;0.016;2023-03-13T01:04:56;27.63;;;6.95;;
25359;SDS011;13311;51.386;0.016;2023-03-13T01:09:57;17.85;;;5.15;;
25359;SDS011;13311;51.386;0.016;2023-03-13T01:14:57;24.40;;;5.57;;
25359;SDS011;13311;51.386;0.016;2023-03-13T01:19:58;23.35;;;6.20;;
25359;SDS011;13311;51.386;0.016;2023-03-13T01:24:59;20.70;;;5.32;;
25359;SDS011;13311;51.386;0.016;2023-03-13T01:29:59;17.15;;;5.93;;
25359;SDS011;13311;51.386;0.016;2023-03-13T01:35:00;21.70;;;4.95;;
25359;SDS011;13311;51.386;0.016;2023-03-13T01:40:01;13.48;;;3.95;;
25359;SDS011;13311;51.386;0.016;2023-03-13T01:45:02;18.80;;;4.80;;
25359;SDS011;13311;51.386;0.016;2023-03-13T01:50:03;9.32;;;3.35;;
25359;SDS011;13311;51.386;0.016;2023-03-13T01:55:07;17.98;;;3.72;;
25359;SDS011;13311;51.386;0.016;2023-03-13T02:00:12;11.43;;;3.33;;
25359;SDS011;13311;51.386;0.016;2023-03-13T02:05:18;9.30;;;3.00;;
25359;SDS011;13311;51.386;0.016;2023-03-13T02:10:22;8.50;;;2.83;;
25359;SDS011;13311;51.386;0.016;2023-03-13T02:15:25;6.80;;;2.35;;
25359;SDS011;13311;51.386;0.016;2023-03-13T02:20:27;9.10;;;3.10;;
25359;SDS011;13311;51.386;0.016;2023-03-13T02:30:49;6.40;;;2.20;;
25359;SDS011;13311;51.386;0.016;2023-03-13T02:35:53;5.32;;;2.25;;
25359;SDS011;13311;51.386;0.016;2023-03-13T02:40:54;8.27;;;1.90;;
25359;SDS011;13311;51.386;0.016;2023-03-13T02:46:10;6.57;;;2.17;;
25359;SDS011;13311;51.386;0.016;2023-03-13T02:56:41;12.13;;;2.95;;
25359;SDS011;13311;51.386;0.016;2023-03-13T03:01:47;8.88;;;2.92;;
25359;SDS011;13311;51.386;0.016;2023-03-13T03:06:51;14.10;;;3.83;;
25359;SDS011;13311;51.386;0.016;2023-03-13T03:11:52;12.00;;;2.70;;
25359;SDS011;13311;51.386;0.016;2023-03-13T03:16:53;7.72;;;2.55;;
25359;SDS011;13311;51.386;0.016;2023-03-13T03:21:54;8.63;;;3.10;;
25359;SDS011;13311;51.386;0.016;2023-03-13T03:26:55;6.18;;;1.65;;
25359;SDS011;13311;51.386;0.016;2023-03-13T03:31:55;4.07;;;1.58;;
25359;SDS011;13311;51.386;0.016;2023-03-13T03:36:56;4.85;;;1.40;;
25359;SDS011;13311;51.386;0.016;2023-03-13T03:41:57;4.97;;;1.80;;
25359;SDS011;13311;51.386;0.016;2023-03-13T03:46:57;4.85;;;1.52;;
25359;SDS011;13311;51.386;0.016;2023-03-13T03:51:58;6.18;;;1.05;;
25359;SDS011;13311;51.386;0.016;2023-03-13T03:56:59;2.65;;;1.00;;
25359;SDS011;13311;51.386;0.016;2023-03-13T04:01:59;2.33;;;0.93;;
25359;SDS011;13311;51.386;0.016;2023-03-13T04:07:00;2.53;;;0.88;;
25359;SDS011;13311;51.386;0.016;2023-03-13T04:12:01;1.58;;;0.63;;
25359;SDS011;13311;51.386;0.016;2023-03-13T04:17:02;2.92;;;0.68;;
25359;SDS011;13311;51.386;0.016;2023-03-13T04:22:03;3.80;;;0.98;;
25359;SDS011;13311;51.386;0.016;2023-03-13T04:27:04;3.85;;;1.25;;
25359;SDS011;13311;51.386;0.016;2023-03-13T04:32:05;7.07;;;1.95;;
25359;SDS011;13311;51.386;0.016;2023-03-13T04:37:06;5.38;;;1.50;;
25359;SDS011;13311;51.386;0.016;2023-03-13T04:42:08;6.68;;;1.83;;
25359;SDS011;13311;51.386;0.016;2023-03-13T04:47:10;5.18;;;1.55;;
25359;SDS011;13311;51.386;0.016;2023-03-13T04:52:11;9.02;;;1.80;;
25359;SDS011;13311;51.386;0.016;2023-03-13T04:57:12;6.65;;;1.73;;
25359;SDS011;13311;51.386;0.016;2023-03-13T05:02:12;7.65;;;2.10;;
25359;SDS011;13311;51.386;0.016;2023-03-13T05:07:13;13.32;;;2.30;;
25359;SDS011;13311;51.386;0.016;2023-03-13T05:12:14;7.82;;;2.50;;
25359;SDS011;13311;51.386;0.016;2023-03-13T05:17:15;11.07;;;2.92;;
25359;SDS011;13311;51.386;0.016;2023-03-13T05:22:16;7.93;;;2.80;;
25359;SDS011;13311;51.386;0.016;2023-03-13T05:27:17;13.30;;;3.65;;
25359;SDS011;13311;51.386;0.016;2023-03-13T05:32:18;11.82;;;3.33;;
25359;SDS011;13311;51.386;0.016;2023-03-13T05:37:18;15.00;;;4.72;;
25359;SDS011;13311;51.386;0.016;2023-03-13T05:42:19;14.63;;;3.70;;
25359;SDS011;13311;51.386;0.016;2023-03-13T05:47:20;18.85;;;4.50;;
25359;SDS011;13311;51.386;0.016;2023-03-13T05:52:21;16.02;;;4.70;;
25359;SDS011;13311;51.386;0.016;2023-03-13T05:57:22;26.95;;;5.07;;
25359;SDS011;13311;51.386;0.016;2023-03-13T06:02:23;20.70;;;4.55;;
25359;SDS011;13311;51.386;0.016;2023-03-13T06:07:23;23.63;;;6.03;;
25359;SDS011;13311;51.386;0.016;2023-03-13T06:12:24;13.35;;;3.85;;
25359;SDS011;13311;51.386;0.016;2023-03-13T06:17:25;15.85;;;4.63;;
25359;SDS011;13311;51.386;0.016;2023-03-13T06:22:25;11.95;;;3.97;;
25359;SDS011;13311;51.386;0.016;2023-03-13T06:27:26;21.05;;;4.40;;
25359;SDS011;13311;51.386;0.016;2023-03-13T06:32:27;18.38;;;4.90;;
25359;SDS011;13311;51.386;0.016;2023-03-13T06:37:28;30.77;;;6.18;;
25359;SDS011;13311;51.386;0.016;2023-03-13T06:42:28;30.40;;;5.38;;
25359;SDS011;13311;51.386;0.016;2023-03-13T06:47:32;32.58;;;6.60;;
25359;SDS011;13311;51.386;0.016;2023-03-13T06:52:33;24.55;;;5.90;;
25359;SDS011;13311;51.386;0.016;2023-03-13T06:57:33;31.75;;;7.32;;
25359;SDS011;13311;51.386;0.016;2023-03-13T07:02:34;27.45;;;6.50;;
25359;SDS011;13311;51.386;0.016;2023-03-13T07:07:35;36.75;;;7.68;;
25359;SDS011;13311;51.386;0.016;2023-03-13T07:12:36;32.33;;;8.13;;
25359;SDS011;13311;51.386;0.016;2023-03-13T07:17:37;28.95;;;7.45;;
25359;SDS011;13311;51.386;0.016;2023-03-13T07:22:38;34.40;;;7.28;;
25359;SDS011;13311;51.386;0.016;2023-03-13T07:27:38;29.90;;;7.28;;
25359;SDS011;13311;51.386;0.016;2023-03-13T07:32:39;31.50;;;7.57;;
25359;SDS011;13311;51.386;0.016;2023-03-13T07:37:40;49.92;;;8.90;;
25359;SDS011;13311;51.386;0.016;2023-03-13T07:42:40;25.83;;;6.90;;
25359;SDS011;13311;51.386;0.016;2023-03-13T07:47:41;27.02;;;9.15;;
25359;SDS011;13311;51.386;0.016;2023-03-13T07:52:42;42.08;;;9.48;;
25359;SDS011;13311;51.386;0.016;2023-03-13T07:57:42;35.70;;;8.23;;
25359;SDS011;13311;51.386;0.016;2023-03-13T08:02:43;39.72;;;8.75;;
25359;SDS011;13311;51.386;0.016;2023-03-13T08:07:44;44.53;;;10.55;;
25359;SDS011;13311;51.386;0.016;2023-03-13T08:12:45;42.25;;;10.52;;
25359;SDS011;13311;51.386;0.016;2023-03-13T08:17:45;34.45;;;8.85;;
25359;SDS011;13311;51.386;0.016;2023-03-13T08:22:46;42.45;;;9.80;;
25359;SDS011;13311;51.386;0.016;2023-03-13T08:27:49;39.72;;;8.77;;
25359;SDS011;13311;51.386;0.016;2023-03-13T08:32:50;53.22;;;9.93;;
25359;SDS011;13311;51.386;0.016;2023-03-13T08:37:50;37.47;;;8.75;;
25359;SDS011;13311;51.386;0.016;2023-03-13T08:42:51;47.13;;;9.65;;
25359;SDS011;13311;51.386;0.016;2023-03-13T08:47:53;36.55;;;8.68;;
25359;SDS011;13311;51.386;0.016;2023-03-13T08:52:54;42.17;;;8.95;;
25359;SDS011;13311;51.386;0.016;2023-03-13T08:57:55;30.88;;;8.10;;
25359;SDS011;13311;51.386;0.016;2023-03-13T09:02:56;46.95;;;9.50;;
25359;SDS011;13311;51.386;0.016;2023-03-13T09:07:57;48.58;;;9.95;;
25359;SDS011;13311;51.386;0.016;2023-03-13T09:12:58;44.38;;;9.30;;
25359;SDS011;13311;51.386;0.016;2023-03-13T09:17:58;33.50;;;8.15;;
25359;SDS011;13311;51.386;0.016;2023-03-13T09:22:59;37.40;;;9.15;;
25359;SDS011;13311;51.386;0.016;2023-03-13T09:28:00;43.47;;;10.18;;
25359;SDS011;13311;51.386;0.016;2023-03-13T09:33:01;35.95;;;8.80;;
25359;SDS011;13311;51.386;0.016;2023-03-13T09:38:01;45.20;;;9.73;;
25359;SDS011;13311;51.386;0.016;2023-03-13T09:43:02;29.10;;;7.38;;
25359;SDS011;13311;51.386;0.016;2023-03-13T09:53:06;38.88;;;8.10;;
25359;SDS011;13311;51.386;0.016;2023-03-13T09:58:21;39.10;;;8.50;;
25359;SDS011;13311;51.386;0.016;2023-03-13T10:08:39;42.03;;;10.00;;
25359;SDS011;13311;51.386;0.016;2023-03-13T10:13:41;37.40;;;9.70;;
25359;SDS011;13311;51.386;0.016;2023-03-13T10:19:01;32.25;;;8.75;;
25359;SDS011;13311;51.386;0.016;2023-03-13T10:24:32;39.83;;;9.32;;
25359;SDS011;13311;51.386;0.016;2023-03-13T10:29:50;36.95;;;8.73;;
25359;SDS011;13311;51.386;0.016;2023-03-13T10:45:24;38.80;;;8.35;;
25359;SDS011;13311;51.386;0.016;2023-03-13T10:50:25;39.50;;;9.15;;
25359;SDS011;13311;51.386;0.016;2023-03-13T10:55:32;36.80;;;8.40;;
25359;SDS011;13311;51.386;0.016;2023-03-13T11:00:36;36.10;;;7.80;;
25359;SDS011;13311;51.386;0.016;2023-03-13T11:05:41;22.65;;;6.93;;
25359;SDS011;13311;51.386;0.016;2023-03-13T11:10:50;32.08;;;8.57;;
25359;SDS011;13311;51.386;0.016;2023-03-13T11:15:56;34.85;;;7.80;;
25359;SDS011;13311;51.386;0.016;2023-03-13T11:26:06;29.40;;;7.97;;
25359;SDS011;13311;51.386;0.016;2023-03-13T11:31:23;31.53;;;7.63;;
25359;SDS011;13311;51.386;0.016;2023-03-13T11:36:42;30.93;;;8.30;;
25359;SDS011;13311;51.386;0.016;2023-03-13T11:41:58;36.72;;;7.50;;
25359;SDS011;13311;51.386;0.016;2023-03-13T11:47:41;34.00;;;8.73;;
25359;SDS011;13311;51.386;0.016;2023-03-13T11:53:39;38.88;;;9.70;;
25359;SDS011;13311;51.386;0.016;2023-03-13T11:59:37;35.65;;;7.82;;
25359;SDS011;13311;51.386;0.016;2023-03-13T12:05:05;32.13;;;8.98;;
25359;SDS011;13311;51.386;0.016;2023-03-13T12:20:46;43.67;;;8.95;;
25359;SDS011;13311;51.386;0.016;2023-03-13T12:26:20;39.40;;;9.05;;
25359;SDS011;13311;51.386;0.016;2023-03-13T12:31:40;30.88;;;8.45;;
25359;SDS011;13311;51.386;0.016;2023-03-13T12:58:51;30.15;;;8.02;;
25359;SDS011;13311;51.386;0.016;2023-03-13T13:04:00;41.17;;;8.52;;
25359;SDS011;13311;51.386;0.016;2023-03-13T13:09:12;24.83;;;6.75;;
25359;SDS011;13311;51.386;0.016;2023-03-13T13:29:51;39.30;;;8.32;;
25359;SDS011;13311;51.386;0.016;2023-03-13T13:34:59;34.35;;;7.38;;
25359;SDS011;13311;51.386;0.016;2023-03-13T13:40:18;39.88;;;8.60;;
25359;SDS011;13311;51.386;0.016;2023-03-13T13:45:26;34.10;;;8.52;;
25359;SDS011;13311;51.386;0.016;2023-03-13T13:50:31;31.35;;;8.05;;
25359;SDS011;13311;51.386;0.016;2023-03-13T14:00:42;38.95;;;10.02;;
25359;SDS011;13311;51.386;0.016;2023-03-13T14:05:59;33.35;;;7.93;;
25359;SDS011;13311;51.386;0.016;2023-03-13T14:11:29;37.25;;;8.32;;
25359;SDS011;13311;51.386;0.016;2023-03-13T14:16:36;34.58;;;7.85;;
25359;SDS011;13311;51.386;0.016;2023-03-13T14:21:38;40.70;;;10.10;;
25359;SDS011;13311;51.386;0.016;2023-03-13T14:26:43;39.50;;;9.73;;
25359;SDS011;13311;51.386;0.016;2023-03-13T14:31:51;36.20;;;8.75;;
25359;SDS011;13311;51.386;0.016;2023-03-13T14:36:56;49.50;;;11.27;;
25359;SDS011;13311;51.386;0.016;2023-03-13T14:42:02;30.10;;;8.75;;
25359;SDS011;13311;51.386;0.016;2023-03-13T14:52:30;32.77;;;9.03;;
25359;SDS011;13311;51.386;0.016;2023-03-13T14:57:32;40.03;;;9.93;;
25359;SDS011;13311;51.386;0.016;2023-03-13T15:02:34;39.03;;;8.35;;
25359;SDS011;13311;51.386;0.016;2023-03-13T15:07:39;38.83;;;8.88;;
25359;SDS011;13311;51.386;0.016;2023-03-13T15:12:56;38.28;;;10.38;;
25359;SDS011;13311;51.386;0.016;2023-03-13T15:17:56;35.10;;;9.55;;
25359;SDS011;13311;51.386;0.016;2023-03-13T15:22:57;39.20;;;9.82;;
25359;SDS011;13311;51.386;0.016;2023-03-13T15:27:58;33.40;;;8.35;;
25359;SDS011;13311;51.386;0.016;2023-03-13T15:32:59;35.65;;;8.13;;
25359;SDS011;13311;51.386;0.016;2023-03-13T15:38:00;36.85;;;8.82;;
25359;SDS011;13311;51.386;0.016;2023-03-13T15:43:01;32.17;;;8.93;;
25359;SDS011;13311;51.386;0.016;2023-03-13T15:48:02;33.42;;;8.95;;
25359;SDS011;13311;51.386;0.016;2023-03-13T15:53:19;42.42;;;9.55;;
25359;SDS011;13311;51.386;0.016;2023-03-13T15:58:25;37.50;;;8.25;;
25359;SDS011;13311;51.386;0.016;2023-03-13T16:03:27;35.13;;;8.88;;
25359;SDS011;13311;51.386;0.016;2023-03-13T16:08:28;30.50;;;7.55;;
25359;SDS011;13311;51.386;0.016;2023-03-13T16:13:29;23.92;;;6.72;;
25359;SDS011;13311;51.386;0.016;2023-03-13T16:18:30;26.95;;;7.20;;
25359;SDS011;13311;51.386;0.016;2023-03-13T16:23:31;21.25;;;6.32;;
25359;SDS011;13311;51.386;0.016;2023-03-13T16:28:31;31.92;;;7.68;;
25359;SDS011;13311;51.386;0.016;2023-03-13T16:33:32;26.75;;;7.38;;
25359;SDS011;13311;51.386;0.016;2023-03-13T16:38:32;26.67;;;5.85;;
25359;SDS011;13311;51.386;0.016;2023-03-13T16:43:33;23.52;;;6.65;;
25359;SDS011;13311;51.386;0.016;2023-03-13T16:48:34;39.65;;;9.52;;
25359;SDS011;13311;51.386;0.016;2023-03-13T16:53:34;27.83;;;7.07;;
25359;SDS011;13311;51.386;0.016;2023-03-13T16:58:35;31.70;;;7.82;;
25359;SDS011;13311;51.386;0.016;2023-03-13T17:03:36;27.83;;;6.45;;
25359;SDS011;13311;51.386;0.016;2023-03-13T17:08:37;34.88;;;8.43;;
25359;SDS011;13311;51.386;0.016;2023-03-13T17:13:38;32.95;;;7.38;;
25359;SDS011;13311;51.386;0.016;2023-03-13T17:18:39;42.58;;;9.27;;
25359;SDS011;13311;51.386;0.016;2023-03-13T17:23:41;33.83;;;8.05;;
25359;SDS011;13311;51.386;0.016;2023-03-13T17:28:42;34.72;;;7.60;;
25359;SDS011;13311;51.386;0.016;2023-03-13T17:33:44;24.85;;;6.25;;
25359;SDS011;13311;51.386;0.016;2023-03-13T17:38:46;32.97;;;7.50;;
25359;SDS011;13311;51.386;0.016;2023-03-13T17:43:51;35.13;;;7.85;;
25359;SDS011;13311;51.386;0.016;2023-03-13T17:48:52;32.42;;;6.93;;
25359;SDS011;13311;51.386;0.016;2023-03-13T17:53:53;35.75;;;7.90;;
25359;SDS011;13311;51.386;0.016;2023-03-13T17:58:57;36.30;;;8.50;;
25359;SDS011;13311;51.386;0.016;2023-03-13T18:03:59;26.30;;;7.13;;
25359;SDS011;13311;51.386;0.016;2023-03-13T18:09:02;34.55;;;8.10;;
25359;SDS011;13311;51.386;0.016;2023-03-13T18:14:07;31.42;;;6.93;;
25359;SDS011;13311;51.386;0.016;2023-03-13T18:19:18;32.47;;;6.72;;
25359;SDS011;13311;51.386;0.016;2023-03-13T18:24:22;32.17;;;6.45;;
25359;SDS011;13311;51.386;0.016;2023-03-13T18:29:23;21.88;;;5.38;;
25359;SDS011;13311;51.386;0.016;2023-03-13T18:34:28;24.58;;;5.97;;
25359;SDS011;13311;51.386;0.016;2023-03-13T18:39:31;19.27;;;4.43;;
25359;SDS011;13311;51.386;0.016;2023-03-13T18:44:32;22.88;;;5.45;;
25359;SDS011;13311;51.386;0.016;2023-03-13T18:49:33;24.00;;;6.35;;
25359;SDS011;13311;51.386;0.016;2023-03-13T18:54:34;23.33;;;5.88;;
25359;SDS011;13311;51.386;0.016;2023-03-13T18:59:34;21.40;;;4.93;;
25359;SDS011;13311;51.386;0.016;2023-03-13T19:04:35;23.85;;;5.53;;
25359;SDS011;13311;51.386;0.016;2023-03-13T19:09:36;26.20;;;6.38;;
25359;SDS011;13311;51.386;0.016;2023-03-13T19:14:36;20.15;;;4.93;;
25359;SDS011;13311;51.386;0.016;2023-03-13T19:19:37;20.08;;;4.72;;
25359;SDS011;13311;51.386;0.016;2023-03-13T19:24:38;34.22;;;6.07;;
25359;SDS011;13311;51.386;0.016;2023-03-13T19:29:38;20.27;;;5.40;;
25359;SDS011;13311;51.386;0.016;2023-03-13T19:34:39;28.60;;;5.20;;
25359;SDS011;13311;51.386;0.016;2023-03-13T19:39:40;23.38;;;5.22;;
25359;SDS011;13311;51.386;0.016;2023-03-13T19:44:41;22.33;;;5.05;;
25359;SDS011;13311;51.386;0.016;2023-03-13T19:49:43;26.52;;;6.25;;
25359;SDS011;13311;51.386;0.016;2023-03-13T19:54:44;25.23;;;5.50;;
25359;SDS011;13311;51.386;0.016;2023-03-13T19:59:45;23.85;;;4.90;;
25359;SDS011;13311;51.386;0.016;2023-03-13T20:04:46;25.25;;;4.97;;
25359;SDS011;13311;51.386;0.016;2023-03-13T20:09:47;17.70;;;4.55;;
25359;SDS011;13311;51.386;0.016;2023-03-13T20:14:48;18.58;;;5.13;;
25359;SDS011;13311;51.386;0.016;2023-03-13T20:19:48;25.38;;;4.75;;
25359;SDS011;13311;51.386;0.016;2023-03-13T20:24:49;21.58;;;4.70;;
25359;SDS011;13311;51.386;0.016;2023-03-13T20:29:50;22.75;;;5.68;;
25359;SDS011;13311;51.386;0.016;2023-03-13T20:34:51;17.02;;;3.97;;
25359;SDS011;13311;51.386;0.016;2023-03-13T20:39:51;24.25;;;5.43;;
25359;SDS011;13311;51.386;0.016;2023-03-13T20:44:52;24.45;;;4.88;;
25359;SDS011;13311;51.386;0.016;2023-03-13T20:49:54;17.23;;;4.22;;
25359;SDS011;13311;51.386;0.016;2023-03-13T20:54:55;19.83;;;4.38;;
25359;SDS011;13311;51.386;0.016;2023-03-13T20:59:55;27.02;;;5.93;;
25359;SDS011;13311;51.386;0.016;2023-03-13T21:04:56;21.35;;;4.78;;
25359;SDS011;13311;51.386;0.016;2023-03-13T21:09:57;17.35;;;4.03;;
25359;SDS011;13311;51.386;0.016;2023-03-13T21:14:58;25.05;;;4.47;;
25359;SDS011;13311;51.386;0.016;2023-03-13T21:19:59;18.85;;;4.47;;
25359;SDS011;13311;51.386;0.016;2023-03-13T21:24:59;21.00;;;5.07;;
25359;SDS011;13311;51.386;0.016;2023-03-13T21:30:02;23.60;;;5.10;;
25359;SDS011;13311;51.386;0.016;2023-03-13T21:35:05;20.23;;;5.13;;
25359;SDS011;13311;51.386;0.016;2023-03-13T21:40:08;25.08;;;5.40;;
25359;SDS011;13311;51.386;0.016;2023-03-13T21:45:10;21.45;;;4.95;;
25359;SDS011;13311;51.386;0.016;2023-03-13T21:50:11;21.73;;;5.38;;
25359;SDS011;13311;51.386;0.016;2023-03-13T21:55:12;28.27;;;6.28;;
25359;SDS011;13311;51.386;0.016;2023-03-13T22:00:13;30.20;;;6.53;;
25359;SDS011;13311;51.386;0.016;2023-03-13T22:05:14;28.30;;;6.25;;
25359;SDS011;13311;51.386;0.016;2023-03-13T22:10:15;15.95;;;4.53;;
25359;SDS011;13311;51.386;0.016;2023-03-13T22:15:16;21.30;;;5.53;;
25359;SDS011;13311;51.386;0.016;2023-03-13T22:20:17;28.88;;;6.60;;
25359;SDS011;13311;51.386;0.016;2023-03-13T22:25:18;36.13;;;6.78;;
25359;SDS011;13311;51.386;0.016;2023-03-13T22:30:18;25.05;;;6.93;;
25359;SDS011;13311;51.386;0.016;2023-03-13T22:35:19;33.00;;;6.55;;
25359;SDS011;13311;51.386;0.016;2023-03-13T22:40:20;29.80;;;7.00;;
25359;SDS011;13311;51.386;0.016;2023-03-13T22:45:21;21.45;;;4.38;;
25359;SDS011;13311;51.386;0.016;2023-03-13T22:50:22;26.58;;;6.93;;
25359;SDS011;13311;51.386;0.016;2023-03-13T22:55:24;26.63;;;6.15;;
25359;SDS011;13311;51.386;0.016;2023-03-13T23:00:25;30.27;;;5.38;;
25359;SDS011;13311;51.386;0.016;2023-03-13T23:05:26;33.30;;;7.32;;
25359;SDS011;13311;51.386;0.016;2023-03-13T23:10:27;27.05;;;7.03;;
25359;SDS011;13311;51.386;0.016;2023-03-13T23:15:27;34.88;;;6.85;;
25359;SDS011;13311;51.386;0.016;2023-03-13T23:20:28;25.13;;;5.60;;
25359;SDS011;13311;51.386;0.016;2023-03-13T23:25:29;28.95;;;6.68;;
25359;SDS011;13311;51.386;0.016;2023-03-13T23:30:30;30.77;;;6.53;;
25359;SDS011;13311;51.386;0.016;2023-03-13T23:35:30;33.05;;;6.93;;
25359;SDS011;13311;51.386;0.016;2023-03-13T23:40:31;27.13;;;6.55;;
25359;SDS011;13311;51.386;0.016;2023-03-13T23:45:33;32.08;;;6.68;;
25359;SDS011;13311;51.386;0.016;2023-03-13T23:50:35;44.08;;;7.38;;
25359;SDS011;13311;51.386;0.016;2023-03-13T23:55:36;26.13;;;5.53;;
